Cavalier, ND (58220)

7:40 AM CST on December 06, 2016 (GMT -0600)
Cavalier | | Change Station

Elev 892 ft 48.78 °N, 97.63 °W | Updated 25 minutes ago

Light Snow
Light Snow
28 °F
Feels Like 12 °F
N
31
Wind Variable Wind from North
Gusts 43 mph

Today
High -- | Low -- °F
--% Chance of Precip.
Yesterday
High -- | Low -- °F
Precip. -- in
Pressure 29.34 in
Visibility 0.8 miles
Clouds
Windchill 12 °F
Dew Point 27 °F
Humidity 93%
Rainfall 13.62 in
Snow Depth Not available.
8:08 AM 4:34 PM
Waxing Crescent, 42% visible
METAR K2C8 061315Z AUTO 35027G37KT 3/4SM -SN M02/M03 A2934 RMK AO2 P0023
Pressure 29.34 in
Visibility 0.8 miles
Clouds
Windchill 12 °F
Dew Point 27 °F
Humidity 93%
Rainfall 13.62 in
Snow Depth Not available.
8:08 AM 4:34 PM
Waxing Crescent, 42% visible
METAR K2C8 061315Z AUTO 35027G37KT 3/4SM -SN M02/M03 A2934 RMK AO2 P0023

10-Day Weather Forecast

Almanac

Astronomy

Dec. 06, 2016 Rise Set
Actual Time
Civil Twilight
Nautical Twilight
Astronomical Twilight
Moon
Length of Visible Light
Length of Day
Tomorrow will be .
, % of the Moon is Illuminated

Today's Extremes

State Highs State Lows

Community

WunderPhotos

Upload Photos

1,955,945 photos uploaded!

WunderBlog® & News

Nearby

Air Quality

  Air Quality AQ Index Pollutant
Not available.

Snow Depth

Station Depth Elevation

Earthquake Activity

City Distance Mag. Time & Date
Minimum magnitude displayed is 2.5.

Coastal Water Temperatures

Place Temperature

Stations

Nearby Weather Stations

Station Location Temp. Windchill Dew Point Humidity Wind Precip. Elev Updated Type
                   

Watches & Warnings

Winter Storm Warning, Blizzard Warning
Issued: 6:49 AM CST Dec. 6, 2016 – National Weather Service

... Winter Storm Warning remains in effect until 9 am CST this
morning...
... Blizzard Warning remains in effect until 6 PM CST this
evening...

* timing... snow will continue through the day and then diminish
this evening. Blizzard conditions will develop by late morning
and continue through the day.

* Snow accumulations... additional 3 to 7 inches. Storm total 8
to 15 inches.

* Winds... northwest 30 to 40 mph with gusts up to 55 mph.

* Visibilities... near zero to whiteout at times... especially in
open areas.

Precautionary/preparedness actions...

A Blizzard Warning means severe winter weather conditions are
expected or occurring. Falling and blowing snow with strong winds
and poor visibilities are likely. This will lead to whiteout
conditions... making travel extremely dangerous. Do not travel. If
you must travel... have a winter survival kit with you. If you get
stranded... stay with your vehicle.